sensor_id;sensor_type;location;lat;lon;timestamp;temperature;humidity
46309;DHT22;32037;50.820;6.494;2024-03-25T00:01:09;10.70;99.90
46309;DHT22;32037;50.820;6.494;2024-03-25T00:03:36;10.70;99.90
46309;DHT22;32037;50.820;6.494;2024-03-25T00:06:04;10.80;99.90
46309;DHT22;32037;50.820;6.494;2024-03-25T00:08:30;10.70;99.90
46309;DHT22;32037;50.820;6.494;2024-03-25T00:10:57;10.70;99.90
46309;DHT22;32037;50.820;6.494;2024-03-25T00:13:23;10.70;99.90
46309;DHT22;32037;50.820;6.494;2024-03-25T00:15:51;10.70;99.90
46309;DHT22;32037;50.820;6.494;2024-03-25T00:18:17;10.80;99.90
46309;DHT22;32037;50.820;6.494;2024-03-25T00:20:45;10.70;99.90
46309;DHT22;32037;50.820;6.494;2024-03-25T00:23:11;10.70;99.90
46309;DHT22;32037;50.820;6.494;2024-03-25T00:25:39;10.70;99.90
46309;DHT22;32037;50.820;6.494;2024-03-25T00:28:05;10.80;99.90
46309;DHT22;32037;50.820;6.494;2024-03-25T00:30:32;10.70;99.90
46309;DHT22;32037;50.820;6.494;2024-03-25T00:32:58;10.70;99.90
46309;DHT22;32037;50.820;6.494;2024-03-25T00:35:25;10.70;99.90
46309;DHT22;32037;50.820;6.494;2024-03-25T00:37:53;10.70;99.90
46309;DHT22;32037;50.820;6.494;2024-03-25T00:40:20;10.70;99.90
46309;DHT22;32037;50.820;6.494;2024-03-25T00:42:46;10.70;99.90
46309;DHT22;32037;50.820;6.494;2024-03-25T00:45:13;10.70;99.90
46309;DHT22;32037;50.820;6.494;2024-03-25T00:47:40;10.70;99.90
46309;DHT22;32037;50.820;6.494;2024-03-25T00:50:08;10.70;99.90
46309;DHT22;32037;50.820;6.494;2024-03-25T00:52:35;10.70;99.90
46309;DHT22;32037;50.820;6.494;2024-03-25T00:55:04;10.70;99.90
46309;DHT22;32037;50.820;6.494;2024-03-25T00:57:30;10.70;99.90
46309;DHT22;32037;50.820;6.494;2024-03-25T00:59:58;10.70;99.90
46309;DHT22;32037;50.820;6.494;2024-03-25T01:02:24;10.70;99.90
46309;DHT22;32037;50.820;6.494;2024-03-25T01:04:53;10.70;99.90
46309;DHT22;32037;50.820;6.494;2024-03-25T01:07:20;10.70;99.90
46309;DHT22;32037;50.820;6.494;2024-03-25T01:09:47;10.70;99.90
46309;DHT22;32037;50.820;6.494;2024-03-25T01:12:14;10.70;99.90
46309;DHT22;32037;50.820;6.494;2024-03-25T01:14:42;10.70;99.90
46309;DHT22;32037;50.820;6.494;2024-03-25T01:17:08;10.70;99.90
46309;DHT22;32037;50.820;6.494;2024-03-25T01:19:35;10.70;99.90
46309;DHT22;32037;50.820;6.494;2024-03-25T01:22:01;10.70;99.90
46309;DHT22;32037;50.820;6.494;2024-03-25T01:24:28;10.70;99.90
46309;DHT22;32037;50.820;6.494;2024-03-25T01:26:54;10.70;99.90
46309;DHT22;32037;50.820;6.494;2024-03-25T01:29:23;10.60;99.90
46309;DHT22;32037;50.820;6.494;2024-03-25T01:31:49;10.60;99.90
46309;DHT22;32037;50.820;6.494;2024-03-25T01:34:16;10.60;99.90
46309;DHT22;32037;50.820;6.494;2024-03-25T01:36:42;10.60;99.90
46309;DHT22;32037;50.820;6.494;2024-03-25T01:39:09;10.60;99.90
46309;DHT22;32037;50.820;6.494;2024-03-25T01:41:36;10.60;99.90
46309;DHT22;32037;50.820;6.494;2024-03-25T01:44:03;10.60;99.90
46309;DHT22;32037;50.820;6.494;2024-03-25T01:46:31;10.60;99.90
46309;DHT22;32037;50.820;6.494;2024-03-25T01:48:58;10.60;99.90
46309;DHT22;32037;50.820;6.494;2024-03-25T01:51:25;10.60;99.90
46309;DHT22;32037;50.820;6.494;2024-03-25T01:53:53;10.60;99.90
46309;DHT22;32037;50.820;6.494;2024-03-25T01:56:21;10.60;99.90
46309;DHT22;32037;50.820;6.494;2024-03-25T01:58:50;10.60;99.90
46309;DHT22;32037;50.820;6.494;2024-03-25T02:01:16;10.60;99.90
46309;DHT22;32037;50.820;6.494;2024-03-25T02:03:46;10.60;99.90
46309;DHT22;32037;50.820;6.494;2024-03-25T02:06:16;10.60;99.90
46309;DHT22;32037;50.820;6.494;2024-03-25T02:08:43;10.60;99.90
46309;DHT22;32037;50.820;6.494;2024-03-25T02:11:10;10.60;99.90
46309;DHT22;32037;50.820;6.494;2024-03-25T02:13:38;10.60;99.90
46309;DHT22;32037;50.820;6.494;2024-03-25T02:16:05;10.50;99.90
46309;DHT22;32037;50.820;6.494;2024-03-25T02:18:33;10.60;99.90
46309;DHT22;32037;50.820;6.494;2024-03-25T02:21:01;10.50;99.90
46309;DHT22;32037;50.820;6.494;2024-03-25T02:23:28;10.50;99.90
46309;DHT22;32037;50.820;6.494;2024-03-25T02:25:56;10.50;99.90
46309;DHT22;32037;50.820;6.494;2024-03-25T02:28:23;10.50;99.90
46309;DHT22;32037;50.820;6.494;2024-03-25T02:30:49;10.60;99.90
46309;DHT22;32037;50.820;6.494;2024-03-25T02:33:16;10.50;99.90
46309;DHT22;32037;50.820;6.494;2024-03-25T02:35:43;10.50;99.90
46309;DHT22;32037;50.820;6.494;2024-03-25T02:38:11;10.50;99.90
46309;DHT22;32037;50.820;6.494;2024-03-25T02:40:37;10.60;99.90
46309;DHT22;32037;50.820;6.494;2024-03-25T02:43:06;10.50;99.90
46309;DHT22;32037;50.820;6.494;2024-03-25T02:45:33;10.50;99.90
46309;DHT22;32037;50.820;6.494;2024-03-25T02:48:00;10.50;99.90
46309;DHT22;32037;50.820;6.494;2024-03-25T02:50:26;10.50;99.90
46309;DHT22;32037;50.820;6.494;2024-03-25T02:52:53;10.50;99.90
46309;DHT22;32037;50.820;6.494;2024-03-25T02:55:19;10.50;99.90
46309;DHT22;32037;50.820;6.494;2024-03-25T02:57:46;10.50;99.90
46309;DHT22;32037;50.820;6.494;2024-03-25T03:00:14;10.50;99.90
46309;DHT22;32037;50.820;6.494;2024-03-25T03:02:41;10.50;99.90
46309;DHT22;32037;50.820;6.494;2024-03-25T03:05:08;10.50;99.90
46309;DHT22;32037;50.820;6.494;2024-03-25T03:07:35;10.50;99.90
46309;DHT22;32037;50.820;6.494;2024-03-25T03:10:01;10.50;99.90
46309;DHT22;32037;50.820;6.494;2024-03-25T03:12:28;10.50;99.90
46309;DHT22;32037;50.820;6.494;2024-03-25T03:14:54;10.50;99.90
46309;DHT22;32037;50.820;6.494;2024-03-25T03:17:22;10.50;99.90
46309;DHT22;32037;50.820;6.494;2024-03-25T03:19:48;10.50;99.90
46309;DHT22;32037;50.820;6.494;2024-03-25T03:22:16;10.50;99.90
46309;DHT22;32037;50.820;6.494;2024-03-25T03:24:42;10.40;99.90
46309;DHT22;32037;50.820;6.494;2024-03-25T03:27:09;10.40;99.90
46309;DHT22;32037;50.820;6.494;2024-03-25T03:29:35;10.40;99.90
46309;DHT22;32037;50.820;6.494;2024-03-25T03:32:02;10.50;99.90
46309;DHT22;32037;50.820;6.494;2024-03-25T03:34:30;10.40;99.90
46309;DHT22;32037;50.820;6.494;2024-03-25T03:36:57;10.50;99.90
46309;DHT22;32037;50.820;6.494;2024-03-25T03:39:23;10.40;99.90
46309;DHT22;32037;50.820;6.494;2024-03-25T03:41:50;10.40;99.90
46309;DHT22;32037;50.820;6.494;2024-03-25T03:44:16;10.40;99.90
46309;DHT22;32037;50.820;6.494;2024-03-25T03:46:43;10.40;99.90
46309;DHT22;32037;50.820;6.494;2024-03-25T03:49:09;10.40;99.90
46309;DHT22;32037;50.820;6.494;2024-03-25T03:51:38;10.40;99.90
46309;DHT22;32037;50.820;6.494;2024-03-25T03:54:04;10.40;99.90
46309;DHT22;32037;50.820;6.494;2024-03-25T03:56:31;10.40;99.90
46309;DHT22;32037;50.820;6.494;2024-03-25T03:58:57;10.40;99.90
46309;DHT22;32037;50.820;6.494;2024-03-25T04:01:24;10.40;99.90
46309;DHT22;32037;50.820;6.494;2024-03-25T04:03:50;10.40;99.90
46309;DHT22;32037;50.820;6.494;2024-03-25T04:06:17;10.40;99.90
46309;DHT22;32037;50.820;6.494;2024-03-25T04:08:45;10.40;99.90
46309;DHT22;32037;50.820;6.494;2024-03-25T04:11:12;10.40;99.90
46309;DHT22;32037;50.820;6.494;2024-03-25T04:13:38;10.40;99.90
46309;DHT22;32037;50.820;6.494;2024-03-25T04:16:06;10.40;99.90
46309;DHT22;32037;50.820;6.494;2024-03-25T04:18:33;10.40;99.90
46309;DHT22;32037;50.820;6.494;2024-03-25T04:21:00;10.40;99.90
46309;DHT22;32037;50.820;6.494;2024-03-25T04:23:27;10.40;99.90
46309;DHT22;32037;50.820;6.494;2024-03-25T04:25:55;10.40;99.90
46309;DHT22;32037;50.820;6.494;2024-03-25T04:28:21;10.40;99.90
46309;DHT22;32037;50.820;6.494;2024-03-25T04:30:52;10.40;99.90
46309;DHT22;32037;50.820;6.494;2024-03-25T04:33:19;10.30;99.90
46309;DHT22;32037;50.820;6.494;2024-03-25T04:35:46;10.30;99.90
46309;DHT22;32037;50.820;6.494;2024-03-25T04:38:15;10.30;99.90
46309;DHT22;32037;50.820;6.494;2024-03-25T04:40:41;10.40;99.90
46309;DHT22;32037;50.820;6.494;2024-03-25T04:43:09;10.40;99.90
46309;DHT22;32037;50.820;6.494;2024-03-25T04:45:35;10.30;99.90
46309;DHT22;32037;50.820;6.494;2024-03-25T04:48:01;10.40;99.90
46309;DHT22;32037;50.820;6.494;2024-03-25T04:50:28;10.30;99.90
46309;DHT22;32037;50.820;6.494;2024-03-25T04:52:54;10.30;99.90
46309;DHT22;32037;50.820;6.494;2024-03-25T04:55:20;10.30;99.90
46309;DHT22;32037;50.820;6.494;2024-03-25T04:57:47;10.30;99.90
46309;DHT22;32037;50.820;6.494;2024-03-25T05:00:15;10.30;99.90
46309;DHT22;32037;50.820;6.494;2024-03-25T05:02:41;10.30;99.90
46309;DHT22;32037;50.820;6.494;2024-03-25T05:05:07;10.30;99.90
46309;DHT22;32037;50.820;6.494;2024-03-25T05:07:34;10.30;99.90
46309;DHT22;32037;50.820;6.494;2024-03-25T05:10:00;10.30;99.90
46309;DHT22;32037;50.820;6.494;2024-03-25T05:12:27;10.30;99.90
46309;DHT22;32037;50.820;6.494;2024-03-25T05:14:53;10.30;99.90
46309;DHT22;32037;50.820;6.494;2024-03-25T05:17:20;10.30;99.90
46309;DHT22;32037;50.820;6.494;2024-03-25T05:19:47;10.30;99.90
46309;DHT22;32037;50.820;6.494;2024-03-25T05:22:13;10.30;99.90
46309;DHT22;32037;50.820;6.494;2024-03-25T05:24:39;10.30;99.90
46309;DHT22;32037;50.820;6.494;2024-03-25T05:27:07;10.20;99.90
46309;DHT22;32037;50.820;6.494;2024-03-25T05:29:33;10.20;99.90
46309;DHT22;32037;50.820;6.494;2024-03-25T05:32:00;10.20;99.90
46309;DHT22;32037;50.820;6.494;2024-03-25T05:34:29;10.20;99.90
46309;DHT22;32037;50.820;6.494;2024-03-25T05:36:55;10.20;99.90
46309;DHT22;32037;50.820;6.494;2024-03-25T05:39:21;10.20;99.90
46309;DHT22;32037;50.820;6.494;2024-03-25T05:41:48;10.20;99.90
46309;DHT22;32037;50.820;6.494;2024-03-25T05:44:14;10.20;99.90
46309;DHT22;32037;50.820;6.494;2024-03-25T05:46:41;10.20;99.90
46309;DHT22;32037;50.820;6.494;2024-03-25T05:49:07;10.20;99.90
46309;DHT22;32037;50.820;6.494;2024-03-25T05:51:35;10.20;99.90
46309;DHT22;32037;50.820;6.494;2024-03-25T05:54:01;10.20;99.90
46309;DHT22;32037;50.820;6.494;2024-03-25T05:56:28;10.20;99.90
46309;DHT22;32037;50.820;6.494;2024-03-25T05:58:56;10.20;99.90
46309;DHT22;32037;50.820;6.494;2024-03-25T06:01:22;10.20;99.90
46309;DHT22;32037;50.820;6.494;2024-03-25T06:03:49;10.10;99.90
46309;DHT22;32037;50.820;6.494;2024-03-25T06:06:15;10.10;99.90
46309;DHT22;32037;50.820;6.494;2024-03-25T06:08:42;10.20;99.90
46309;DHT22;32037;50.820;6.494;2024-03-25T06:11:09;10.10;99.90
46309;DHT22;32037;50.820;6.494;2024-03-25T06:13:35;10.10;99.90
46309;DHT22;32037;50.820;6.494;2024-03-25T06:16:01;10.20;99.90
46309;DHT22;32037;50.820;6.494;2024-03-25T06:18:28;10.20;99.90
46309;DHT22;32037;50.820;6.494;2024-03-25T06:20:54;10.10;99.90
46309;DHT22;32037;50.820;6.494;2024-03-25T06:23:24;10.10;99.90
46309;DHT22;32037;50.820;6.494;2024-03-25T06:25:53;10.10;99.90
46309;DHT22;32037;50.820;6.494;2024-03-25T06:28:19;10.10;99.90
46309;DHT22;32037;50.820;6.494;2024-03-25T06:30:46;10.10;99.90
46309;DHT22;32037;50.820;6.494;2024-03-25T06:33:31;10.10;99.90
46309;DHT22;32037;50.820;6.494;2024-03-25T06:36:15;10.10;99.90
46309;DHT22;32037;50.820;6.494;2024-03-25T06:38:42;10.10;99.90
46309;DHT22;32037;50.820;6.494;2024-03-25T06:41:09;10.10;99.90
46309;DHT22;32037;50.820;6.494;2024-03-25T06:43:35;10.10;99.90
46309;DHT22;32037;50.820;6.494;2024-03-25T06:46:02;10.10;99.90
46309;DHT22;32037;50.820;6.494;2024-03-25T06:48:29;10.10;99.90
46309;DHT22;32037;50.820;6.494;2024-03-25T06:50:56;10.10;99.90
46309;DHT22;32037;50.820;6.494;2024-03-25T06:53:23;10.10;99.90
46309;DHT22;32037;50.820;6.494;2024-03-25T06:55:54;10.10;99.90
46309;DHT22;32037;50.820;6.494;2024-03-25T06:58:22;10.10;99.90
46309;DHT22;32037;50.820;6.494;2024-03-25T07:00:49;10.10;99.90
46309;DHT22;32037;50.820;6.494;2024-03-25T07:03:15;10.10;99.90
46309;DHT22;32037;50.820;6.494;2024-03-25T07:05:44;10.10;99.90
46309;DHT22;32037;50.820;6.494;2024-03-25T07:08:10;10.10;99.90
46309;DHT22;32037;50.820;6.494;2024-03-25T07:10:38;10.10;99.90
46309;DHT22;32037;50.820;6.494;2024-03-25T07:13:04;10.10;99.90
46309;DHT22;32037;50.820;6.494;2024-03-25T07:15:32;10.10;99.90
46309;DHT22;32037;50.820;6.494;2024-03-25T07:17:58;10.10;99.90
46309;DHT22;32037;50.820;6.494;2024-03-25T07:20:24;10.10;99.90
46309;DHT22;32037;50.820;6.494;2024-03-25T07:22:51;10.10;99.90
46309;DHT22;32037;50.820;6.494;2024-03-25T07:25:17;10.10;99.90
46309;DHT22;32037;50.820;6.494;2024-03-25T07:27:44;10.10;99.90
46309;DHT22;32037;50.820;6.494;2024-03-25T07:30:11;10.10;99.90
46309;DHT22;32037;50.820;6.494;2024-03-25T07:32:38;10.10;99.90
46309;DHT22;32037;50.820;6.494;2024-03-25T07:35:05;10.10;99.90
46309;DHT22;32037;50.820;6.494;2024-03-25T07:37:32;10.10;99.90
46309;DHT22;32037;50.820;6.494;2024-03-25T07:39:58;10.10;99.90
46309;DHT22;32037;50.820;6.494;2024-03-25T07:42:24;10.10;99.90
46309;DHT22;32037;50.820;6.494;2024-03-25T07:44:50;10.10;99.90
46309;DHT22;32037;50.820;6.494;2024-03-25T07:47:17;10.20;99.90
46309;DHT22;32037;50.820;6.494;2024-03-25T07:49:44;10.10;99.90
46309;DHT22;32037;50.820;6.494;2024-03-25T07:52:10;10.20;99.90
46309;DHT22;32037;50.820;6.494;2024-03-25T07:54:37;10.20;99.90
46309;DHT22;32037;50.820;6.494;2024-03-25T07:57:04;10.20;99.90
46309;DHT22;32037;50.820;6.494;2024-03-25T07:59:30;10.20;99.90
46309;DHT22;32037;50.820;6.494;2024-03-25T08:01:57;10.20;99.90
46309;DHT22;32037;50.820;6.494;2024-03-25T08:04:24;10.20;99.90
46309;DHT22;32037;50.820;6.494;2024-03-25T08:06:51;10.20;99.90
46309;DHT22;32037;50.820;6.494;2024-03-25T08:09:17;10.20;99.90
46309;DHT22;32037;50.820;6.494;2024-03-25T08:11:44;10.20;99.90
46309;DHT22;32037;50.820;6.494;2024-03-25T08:14:10;10.20;99.90
46309;DHT22;32037;50.820;6.494;2024-03-25T08:16:36;10.20;99.90
46309;DHT22;32037;50.820;6.494;2024-03-25T08:19:03;10.20;99.90
46309;DHT22;32037;50.820;6.494;2024-03-25T08:21:29;10.20;99.90
46309;DHT22;32037;50.820;6.494;2024-03-25T08:23:58;10.20;99.90
46309;DHT22;32037;50.820;6.494;2024-03-25T08:26:24;10.20;99.90
46309;DHT22;32037;50.820;6.494;2024-03-25T08:28:50;10.20;99.90
46309;DHT22;32037;50.820;6.494;2024-03-25T08:31:16;10.20;99.90
46309;DHT22;32037;50.820;6.494;2024-03-25T08:33:43;10.20;99.90
46309;DHT22;32037;50.820;6.494;2024-03-25T08:36:09;10.20;99.90
46309;DHT22;32037;50.820;6.494;2024-03-25T08:38:35;10.20;99.90
46309;DHT22;32037;50.820;6.494;2024-03-25T08:41:03;10.20;99.90
46309;DHT22;32037;50.820;6.494;2024-03-25T08:43:29;10.20;99.90
46309;DHT22;32037;50.820;6.494;2024-03-25T08:45:55;10.20;99.90
46309;DHT22;32037;50.820;6.494;2024-03-25T08:48:22;10.20;99.90
46309;DHT22;32037;50.820;6.494;2024-03-25T08:50:48;10.30;99.90
46309;DHT22;32037;50.820;6.494;2024-03-25T08:53:14;10.30;99.90
46309;DHT22;32037;50.820;6.494;2024-03-25T08:55:44;10.30;99.90
46309;DHT22;32037;50.820;6.494;2024-03-25T09:00:39;10.30;99.90
46309;DHT22;32037;50.820;6.494;2024-03-25T09:03:05;10.30;99.90
46309;DHT22;32037;50.820;6.494;2024-03-25T09:05:32;10.30;99.90
46309;DHT22;32037;50.820;6.494;2024-03-25T09:07:59;10.30;99.90
46309;DHT22;32037;50.820;6.494;2024-03-25T09:10:26;10.30;99.90
46309;DHT22;32037;50.820;6.494;2024-03-25T09:13:12;10.30;99.90
46309;DHT22;32037;50.820;6.494;2024-03-25T09:15:38;10.30;99.90
46309;DHT22;32037;50.820;6.494;2024-03-25T09:18:05;10.30;99.90
46309;DHT22;32037;50.820;6.494;2024-03-25T09:20:31;10.30;99.90
46309;DHT22;32037;50.820;6.494;2024-03-25T09:22:57;10.30;99.90
46309;DHT22;32037;50.820;6.494;2024-03-25T09:25:23;10.30;99.90
46309;DHT22;32037;50.820;6.494;2024-03-25T09:27:50;10.30;99.90
46309;DHT22;32037;50.820;6.494;2024-03-25T09:30:18;10.30;99.90
46309;DHT22;32037;50.820;6.494;2024-03-25T09:32:45;10.30;99.90
46309;DHT22;32037;50.820;6.494;2024-03-25T09:35:11;10.30;99.90
46309;DHT22;32037;50.820;6.494;2024-03-25T09:37:38;10.30;99.90
46309;DHT22;32037;50.820;6.494;2024-03-25T09:40:06;10.30;99.90
46309;DHT22;32037;50.820;6.494;2024-03-25T09:42:34;10.30;99.90
46309;DHT22;32037;50.820;6.494;2024-03-25T09:45:03;10.30;99.90
46309;DHT22;32037;50.820;6.494;2024-03-25T09:47:34;10.30;99.90
46309;DHT22;32037;50.820;6.494;2024-03-25T09:50:02;10.30;99.90
46309;DHT22;32037;50.820;6.494;2024-03-25T09:52:30;10.30;99.90
46309;DHT22;32037;50.820;6.494;2024-03-25T09:54:56;10.30;99.90
46309;DHT22;32037;50.820;6.494;2024-03-25T09:57:23;10.30;99.90
46309;DHT22;32037;50.820;6.494;2024-03-25T09:59:51;10.30;99.90
46309;DHT22;32037;50.820;6.494;2024-03-25T10:02:17;10.30;99.90
46309;DHT22;32037;50.820;6.494;2024-03-25T10:04:48;10.30;99.90
46309;DHT22;32037;50.820;6.494;2024-03-25T10:07:21;10.30;99.90
46309;DHT22;32037;50.820;6.494;2024-03-25T10:09:48;10.30;99.90
46309;DHT22;32037;50.820;6.494;2024-03-25T10:12:15;10.30;99.90
46309;DHT22;32037;50.820;6.494;2024-03-25T10:14:41;10.30;99.90
46309;DHT22;32037;50.820;6.494;2024-03-25T10:17:08;10.30;99.90
46309;DHT22;32037;50.820;6.494;2024-03-25T10:19:35;10.30;99.90
46309;DHT22;32037;50.820;6.494;2024-03-25T10:22:04;10.30;99.90
46309;DHT22;32037;50.820;6.494;2024-03-25T10:24:39;10.30;99.90
46309;DHT22;32037;50.820;6.494;2024-03-25T10:27:10;10.30;99.90
46309;DHT22;32037;50.820;6.494;2024-03-25T10:29:37;10.30;99.90
46309;DHT22;32037;50.820;6.494;2024-03-25T10:32:03;10.30;99.90
46309;DHT22;32037;50.820;6.494;2024-03-25T10:34:30;10.30;99.90
46309;DHT22;32037;50.820;6.494;2024-03-25T10:36:57;10.30;99.90
46309;DHT22;32037;50.820;6.494;2024-03-25T10:39:27;10.30;99.90
46309;DHT22;32037;50.820;6.494;2024-03-25T10:41:56;10.30;99.90
46309;DHT22;32037;50.820;6.494;2024-03-25T10:44:24;10.30;99.90
46309;DHT22;32037;50.820;6.494;2024-03-25T10:46:55;10.30;99.90
46309;DHT22;32037;50.820;6.494;2024-03-25T10:49:31;10.30;99.90
46309;DHT22;32037;50.820;6.494;2024-03-25T10:52:00;10.20;99.90
46309;DHT22;32037;50.820;6.494;2024-03-25T10:54:29;10.20;99.90
46309;DHT22;32037;50.820;6.494;2024-03-25T10:56:58;10.20;99.90
46309;DHT22;32037;50.820;6.494;2024-03-25T10:59:26;10.20;99.90
46309;DHT22;32037;50.820;6.494;2024-03-25T11:01:53;10.30;99.90
46309;DHT22;32037;50.820;6.494;2024-03-25T11:04:20;10.20;99.90
46309;DHT22;32037;50.820;6.494;2024-03-25T11:06:46;10.20;99.90
46309;DHT22;32037;50.820;6.494;2024-03-25T11:09:22;10.20;99.90
46309;DHT22;32037;50.820;6.494;2024-03-25T11:11:50;10.20;99.90
46309;DHT22;32037;50.820;6.494;2024-03-25T11:14:18;10.20;99.90
46309;DHT22;32037;50.820;6.494;2024-03-25T11:16:51;10.20;99.90
46309;DHT22;32037;50.820;6.494;2024-03-25T11:19:18;10.20;99.90
46309;DHT22;32037;50.820;6.494;2024-03-25T11:21:44;10.20;99.90
46309;DHT22;32037;50.820;6.494;2024-03-25T11:24:10;10.20;99.90
46309;DHT22;32037;50.820;6.494;2024-03-25T11:26:41;10.20;99.90
46309;DHT22;32037;50.820;6.494;2024-03-25T11:29:09;10.20;99.90
46309;DHT22;32037;50.820;6.494;2024-03-25T11:31:37;10.20;99.90
46309;DHT22;32037;50.820;6.494;2024-03-25T11:34:04;10.20;99.90
46309;DHT22;32037;50.820;6.494;2024-03-25T11:36:31;10.20;99.90
46309;DHT22;32037;50.820;6.494;2024-03-25T11:38:58;10.20;99.90
46309;DHT22;32037;50.820;6.494;2024-03-25T11:41:25;10.20;99.90
46309;DHT22;32037;50.820;6.494;2024-03-25T11:43:51;10.20;99.90
46309;DHT22;32037;50.820;6.494;2024-03-25T11:46:19;10.20;99.90
46309;DHT22;32037;50.820;6.494;2024-03-25T11:48:46;10.20;99.90
46309;DHT22;32037;50.820;6.494;2024-03-25T11:51:13;10.20;99.90
46309;DHT22;32037;50.820;6.494;2024-03-25T11:53:39;10.20;99.90
46309;DHT22;32037;50.820;6.494;2024-03-25T11:56:05;10.20;99.90
46309;DHT22;32037;50.820;6.494;2024-03-25T11:58:32;10.20;99.90
46309;DHT22;32037;50.820;6.494;2024-03-25T12:00:58;10.20;99.90
46309;DHT22;32037;50.820;6.494;2024-03-25T12:03:26;10.20;99.90
46309;DHT22;32037;50.820;6.494;2024-03-25T12:05:53;10.20;99.90
46309;DHT22;32037;50.820;6.494;2024-03-25T12:08:19;10.30;99.90
46309;DHT22;32037;50.820;6.494;2024-03-25T12:10:45;10.20;99.90
46309;DHT22;32037;50.820;6.494;2024-03-25T12:13:29;10.30;99.90
46309;DHT22;32037;50.820;6.494;2024-03-25T12:15:56;10.20;99.90
46309;DHT22;32037;50.820;6.494;2024-03-25T12:18:22;10.30;99.90
46309;DHT22;32037;50.820;6.494;2024-03-25T12:20:50;10.30;99.90
46309;DHT22;32037;50.820;6.494;2024-03-25T12:23:16;10.20;99.90
46309;DHT22;32037;50.820;6.494;2024-03-25T12:25:48;10.20;99.90
46309;DHT22;32037;50.820;6.494;2024-03-25T12:28:14;10.30;99.90
46309;DHT22;32037;50.820;6.494;2024-03-25T12:30:49;10.20;99.90
46309;DHT22;32037;50.820;6.494;2024-03-25T12:33:15;10.20;99.90
46309;DHT22;32037;50.820;6.494;2024-03-25T12:35:42;10.30;99.90
46309;DHT22;32037;50.820;6.494;2024-03-25T12:38:09;10.30;99.90
46309;DHT22;32037;50.820;6.494;2024-03-25T12:40:35;10.30;99.90
46309;DHT22;32037;50.820;6.494;2024-03-25T12:43:02;10.30;99.90
46309;DHT22;32037;50.820;6.494;2024-03-25T12:45:28;10.30;99.90
46309;DHT22;32037;50.820;6.494;2024-03-25T12:47:54;10.30;99.90
46309;DHT22;32037;50.820;6.494;2024-03-25T12:50:20;10.30;99.90
46309;DHT22;32037;50.820;6.494;2024-03-25T12:52:47;10.30;99.90
46309;DHT22;32037;50.820;6.494;2024-03-25T12:55:14;10.30;99.90
46309;DHT22;32037;50.820;6.494;2024-03-25T12:57:41;10.30;99.90
46309;DHT22;32037;50.820;6.494;2024-03-25T13:00:08;10.30;99.90
46309;DHT22;32037;50.820;6.494;2024-03-25T13:02:34;10.30;99.90
46309;DHT22;32037;50.820;6.494;2024-03-25T13:05:01;10.30;99.90
46309;DHT22;32037;50.820;6.494;2024-03-25T13:07:27;10.30;99.90
46309;DHT22;32037;50.820;6.494;2024-03-25T13:09:53;10.30;99.90
46309;DHT22;32037;50.820;6.494;2024-03-25T13:12:21;10.30;99.90
46309;DHT22;32037;50.820;6.494;2024-03-25T13:14:47;10.30;99.90
46309;DHT22;32037;50.820;6.494;2024-03-25T13:17:14;10.30;99.90
46309;DHT22;32037;50.820;6.494;2024-03-25T13:19:40;10.30;99.90
46309;DHT22;32037;50.820;6.494;2024-03-25T13:22:06;10.30;99.90
46309;DHT22;32037;50.820;6.494;2024-03-25T13:24:32;10.40;99.90
46309;DHT22;32037;50.820;6.494;2024-03-25T13:26:59;10.40;99.90
46309;DHT22;32037;50.820;6.494;2024-03-25T13:29:26;10.40;99.90
46309;DHT22;32037;50.820;6.494;2024-03-25T13:31:53;10.40;99.90
46309;DHT22;32037;50.820;6.494;2024-03-25T13:34:19;10.40;99.90
46309;DHT22;32037;50.820;6.494;2024-03-25T13:36:45;10.40;99.90
46309;DHT22;32037;50.820;6.494;2024-03-25T13:39:11;10.40;99.90
46309;DHT22;32037;50.820;6.494;2024-03-25T13:41:38;10.40;99.90
46309;DHT22;32037;50.820;6.494;2024-03-25T13:44:04;10.40;99.90
46309;DHT22;32037;50.820;6.494;2024-03-25T13:46:32;10.40;99.90
46309;DHT22;32037;50.820;6.494;2024-03-25T13:48:58;10.40;99.90
46309;DHT22;32037;50.820;6.494;2024-03-25T13:51:24;10.40;99.90
46309;DHT22;32037;50.820;6.494;2024-03-25T13:53:50;10.40;99.90
46309;DHT22;32037;50.820;6.494;2024-03-25T13:56:16;10.40;99.90
46309;DHT22;32037;50.820;6.494;2024-03-25T13:58:43;10.40;99.90
46309;DHT22;32037;50.820;6.494;2024-03-25T14:01:09;10.40;99.90
46309;DHT22;32037;50.820;6.494;2024-03-25T14:03:37;10.40;99.90
46309;DHT22;32037;50.820;6.494;2024-03-25T14:06:04;10.40;99.90
46309;DHT22;32037;50.820;6.494;2024-03-25T14:08:30;10.50;99.90
46309;DHT22;32037;50.820;6.494;2024-03-25T14:11:01;10.40;99.90
46309;DHT22;32037;50.820;6.494;2024-03-25T14:13:28;10.40;99.90
46309;DHT22;32037;50.820;6.494;2024-03-25T14:15:54;10.40;99.90
46309;DHT22;32037;50.820;6.494;2024-03-25T14:18:20;10.40;99.90
46309;DHT22;32037;50.820;6.494;2024-03-25T14:20:49;10.40;99.90
46309;DHT22;32037;50.820;6.494;2024-03-25T14:23:16;10.40;99.90
46309;DHT22;32037;50.820;6.494;2024-03-25T14:25:42;10.40;99.90
46309;DHT22;32037;50.820;6.494;2024-03-25T14:28:08;10.50;99.90
46309;DHT22;32037;50.820;6.494;2024-03-25T14:30:35;10.50;99.90
46309;DHT22;32037;50.820;6.494;2024-03-25T14:33:01;10.40;99.90
46309;DHT22;32037;50.820;6.494;2024-03-25T14:35:28;10.50;99.90
46309;DHT22;32037;50.820;6.494;2024-03-25T14:37:55;10.50;99.90
46309;DHT22;32037;50.820;6.494;2024-03-25T14:40:21;10.50;99.90
46309;DHT22;32037;50.820;6.494;2024-03-25T14:42:47;10.50;99.90
46309;DHT22;32037;50.820;6.494;2024-03-25T14:45:14;10.50;99.90
46309;DHT22;32037;50.820;6.494;2024-03-25T14:47:40;10.50;99.90
46309;DHT22;32037;50.820;6.494;2024-03-25T14:50:07;10.50;99.90
46309;DHT22;32037;50.820;6.494;2024-03-25T14:52:33;10.50;99.90
46309;DHT22;32037;50.820;6.494;2024-03-25T14:55:01;10.50;99.90
46309;DHT22;32037;50.820;6.494;2024-03-25T14:57:27;10.50;99.90
46309;DHT22;32037;50.820;6.494;2024-03-25T14:59:53;10.50;99.90
46309;DHT22;32037;50.820;6.494;2024-03-25T15:02:20;10.50;99.90
46309;DHT22;32037;50.820;6.494;2024-03-25T15:04:46;10.50;99.90
46309;DHT22;32037;50.820;6.494;2024-03-25T15:07:12;10.50;99.90
46309;DHT22;32037;50.820;6.494;2024-03-25T15:09:38;10.50;99.90
46309;DHT22;32037;50.820;6.494;2024-03-25T15:12:06;10.50;99.90
46309;DHT22;32037;50.820;6.494;2024-03-25T15:14:32;10.50;99.90
46309;DHT22;32037;50.820;6.494;2024-03-25T15:16:59;10.50;99.90
46309;DHT22;32037;50.820;6.494;2024-03-25T15:19:26;10.50;99.90
46309;DHT22;32037;50.820;6.494;2024-03-25T15:21:52;10.50;99.90
46309;DHT22;32037;50.820;6.494;2024-03-25T15:24:18;10.50;99.90
46309;DHT22;32037;50.820;6.494;2024-03-25T15:26:45;10.50;99.90
46309;DHT22;32037;50.820;6.494;2024-03-25T15:29:12;10.50;99.90
46309;DHT22;32037;50.820;6.494;2024-03-25T15:31:39;10.60;99.90